Time;durP1;ratioP1;P1;durP2;ratioP2;P2;SDS_P1;SDS_P2;PMS_P1;PMS_P2;Temp;Humidity;BMP_temperature;BMP_pressure;BME280_temperature;BME280_humidity;BME280_pressure;Samples;Min_cycle;Max_cycle;Signal;HPM_P1;HPM_P2
2022/10/17 00:02:21;;;;;;;11.17;7.13;;;;;;;12.34;62.33;95922.41;5052312;28;20222;-82
2022/10/17 00:04:48;;;;;;;10.70;6.27;;;;;;;12.25;62.33;95912.84;5058555;28;20191;-82
2022/10/17 00:07:14;;;;;;;9.07;6.90;;;;;;;12.32;62.50;95924.28;5056889;28;20194;-82
2022/10/17 00:09:44;;;;;;;11.90;7.33;;;;;;;12.29;62.45;95921.94;5055216;28;20191;-83
2022/10/17 00:12:11;;;;;;;9.03;6.53;;;;;;;12.26;62.37;95923.03;5056427;28;20184;-83
2022/10/17 00:14:39;;;;;;;10.47;7.30;;;;;;;12.13;62.53;95904.34;5058598;28;20183;-84
2022/10/17 00:17:06;;;;;;;10.43;6.70;;;;;;;12.23;62.59;95922.44;5058764;28;20197;-84
2022/10/17 00:19:33;;;;;;;9.97;7.40;;;;;;;12.02;62.59;95897.47;5056362;28;20669;-83
2022/10/17 00:22:00;;;;;;;10.03;7.43;;;;;;;12.16;62.68;95922.06;5053312;28;20223;-85
2022/10/17 00:24:27;;;;;;;9.13;6.67;;;;;;;12.18;62.80;95930.47;5053445;28;20194;-84
2022/10/17 00:26:55;;;;;;;10.10;6.90;;;;;;;11.92;62.65;95883.75;5053502;28;20187;-84
2022/10/17 00:29:22;;;;;;;9.70;6.67;;;;;;;12.15;62.96;95928.13;5055863;28;20187;-85
2022/10/17 00:31:49;;;;;;;7.57;6.20;;;;;;;12.04;62.96;95911.00;5055771;28;20187;-83
2022/10/17 00:34:15;;;;;;;9.93;7.17;;;;;;;12.07;62.85;95922.78;5054948;28;20198;-83
2022/10/17 00:36:45;;;;;;;10.23;7.47;;;;;;;12.11;62.93;95928.50;5057225;28;20187;-82
2022/10/17 00:39:12;;;;;;;11.43;8.00;;;;;;;12.09;62.96;95933.75;5056804;28;20187;-82
2022/10/17 00:41:38;;;;;;;10.07;6.77;;;;;;;12.08;62.91;95938.97;5056956;28;20235;-84
2022/10/17 00:44:28;;;;;;;9.73;7.77;;;;;;;11.99;62.93;95927.66;5054811;28;20207;-84
2022/10/17 00:46:55;;;;;;;8.53;6.87;;;;;;;12.03;62.88;95942.69;5052385;28;20191;-84
2022/10/17 00:49:30;;;;;;;14.07;7.17;;;;;;;12.02;63.16;95938.50;5052470;28;20629;-82
2022/10/17 00:52:01;;;;;;;9.30;7.20;;;;;;;12.01;62.94;95944.56;5028435;28;20187;-84
2022/10/17 00:54:32;;;;;;;8.97;6.93;;;;;;;11.76;62.90;95899.44;5033446;28;20586;-83
2022/10/17 00:57:00;;;;;;;9.23;7.17;;;;;;;11.88;63.10;95918.22;5050618;28;20194;-82
2022/10/17 00:59:32;;;;;;;10.70;7.70;;;;;;;11.70;63.14;95891.38;5053804;28;20202;-85
2022/10/17 01:02:03;;;;;;;12.87;7.70;;;;;;;11.79;63.28;95911.22;5053789;28;20257;-81
2022/10/17 01:04:30;;;;;;;11.50;6.90;;;;;;;11.82;63.46;95921.22;5045827;28;20191;-82
2022/10/17 01:06:57;;;;;;;9.93;7.50;;;;;;;11.88;63.29;95930.25;5054038;28;20222;-84
2022/10/17 01:09:25;;;;;;;12.87;8.53;;;;;;;11.65;63.46;95899.41;5054204;28;20245;-84
2022/10/17 01:12:04;;;;;;;9.73;7.63;;;;;;;11.87;63.57;95941.41;5054480;28;20199;-84
2022/10/17 01:14:41;;;;;;;9.17;6.90;;;;;;;11.85;63.37;95931.28;5064983;28;20179;-82
2022/10/17 01:17:15;;;;;;;8.17;6.50;;;;;;;11.66;63.41;95907.94;5068603;28;20183;-84
2022/10/17 01:20:04;;;;;;;13.70;6.87;;;;;;;11.50;63.59;95885.19;5071325;28;20187;-84
2022/10/17 01:22:38;;;;;;;10.23;7.30;;;;;;;11.47;63.36;95880.28;5043251;28;20242;-85
2022/10/17 01:25:24;;;;;;;10.47;6.73;;;;;;;11.79;63.26;95934.28;5049707;28;20183;-83
2022/10/17 01:28:07;;;;;;;11.03;6.93;;;;;;;11.70;63.63;95919.56;5050471;28;20183;-83
2022/10/17 01:30:56;;;;;;;11.30;7.27;;;;;;;11.74;63.58;95933.78;5035935;28;20198;-84
2022/10/17 01:33:55;;;;;;;7.43;6.47;;;;;;;11.73;63.74;95925.28;5036221;28;20188;-84
2022/10/17 01:36:34;;;;;;;11.63;7.67;;;;;;;11.69;63.76;95923.88;5036331;28;20183;-83
2022/10/17 01:39:07;;;;;;;8.20;6.77;;;;;;;11.69;63.67;95934.13;5041893;28;20191;-83
2022/10/17 01:41:41;;;;;;;8.00;6.63;;;;;;;11.68;63.66;95934.25;5058596;28;20596;-85
2022/10/17 01:44:12;;;;;;;9.23;6.70;;;;;;;11.67;63.56;95942.88;5076287;28;20194;-85
2022/10/17 01:46:42;;;;;;;16.27;6.80;;;;;;;11.65;63.64;95942.97;5075238;28;20557;-84
2022/10/17 01:49:13;;;;;;;11.37;7.07;;;;;;;11.65;63.96;95944.72;5075780;28;20197;-84
2022/10/17 01:51:44;;;;;;;11.47;6.97;;;;;;;11.64;63.91;95945.66;5084788;28;20186;-83
2022/10/17 01:54:15;;;;;;;10.23;5.97;;;;;;;11.62;63.84;95945.78;5091212;28;20193;-83
2022/10/17 01:56:44;;;;;;;9.80;7.20;;;;;;;11.61;63.96;95951.81;5091451;28;20204;-84
2022/10/17 01:59:15;;;;;;;9.23;6.90;;;;;;;11.59;64.05;95945.19;5093843;28;20224;-82
2022/10/17 02:01:45;;;;;;;8.93;7.03;;;;;;;11.55;64.02;95939.44;5093911;28;20222;-82
2022/10/17 02:04:12;;;;;;;8.80;6.23;;;;;;;11.56;63.94;95954.69;5076902;28;20191;-83
2022/10/17 02:06:39;;;;;;;7.93;6.33;;;;;;;11.55;63.76;95953.06;5076932;28;20195;-82
2022/10/17 02:09:21;;;;;;;8.13;6.20;;;;;;;11.47;64.02;95936.63;5083157;28;20174;-82
2022/10/17 02:12:01;;;;;;;8.07;6.30;;;;;;;11.43;64.06;95930.09;5094916;28;20179;-82
2022/10/17 02:14:39;;;;;;;7.90;6.50;;;;;;;11.32;63.99;95922.41;5094479;28;20292;-84
2022/10/17 02:17:18;;;;;;;9.00;6.60;;;;;;;11.49;64.19;95958.66;5084886;28;20576;-83
2022/10/17 02:19:58;;;;;;;9.87;6.50;;;;;;;11.34;64.04;95928.22;5073068;28;20189;-84
2022/10/17 02:22:43;;;;;;;7.20;6.07;;;;;;;11.44;64.34;95947.09;5070411;28;20222;-84
2022/10/17 02:25:17;;;;;;;7.90;5.97;;;;;;;11.47;64.11;95952.81;5070240;28;20194;-84
2022/10/17 02:27:52;;;;;;;8.03;6.07;;;;;;;11.46;64.09;95958.06;5071003;28;20299;-83
2022/10/17 02:30:29;;;;;;;8.60;6.10;;;;;;;11.45;64.00;95956.44;5070570;28;20189;-83
2022/10/17 02:33:01;;;;;;;6.50;5.43;;;;;;;11.30;64.28;95941.25;5070969;28;20655;-82
2022/10/17 02:35:31;;;;;;;10.27;6.23;;;;;;;11.28;64.06;95948.22;5071093;28;20201;-83
2022/10/17 02:38:00;;;;;;;8.57;6.23;;;;;;;11.43;64.16;95976.22;5071063;28;20179;-83
2022/10/17 02:40:30;;;;;;;7.07;5.80;;;;;;;11.41;64.02;95978.06;5070235;28;20544;-83
2022/10/17 02:42:59;;;;;;;8.20;6.00;;;;;;;11.40;64.30;95981.53;5073220;28;20228;-82
2022/10/17 02:45:29;;;;;;;8.17;6.10;;;;;;;11.39;64.28;95978.16;5054322;28;20955;-82
2022/10/17 02:48:03;;;;;;;7.70;6.30;;;;;;;11.38;64.33;95981.66;5055516;28;20187;-84
2022/10/17 02:50:39;;;;;;;8.10;5.80;;;;;;;11.37;64.33;95977.47;5056268;28;20195;-82
2022/10/17 02:53:10;;;;;;;7.83;6.50;;;;;;;11.28;64.22;95971.28;5077977;28;20236;-84
2022/10/17 02:55:43;;;;;;;7.13;5.90;;;;;;;11.12;64.25;95949.44;5077834;28;20205;-84
2022/10/17 02:58:18;;;;;;;10.37;5.47;;;;;;;11.34;64.06;95993.06;5080725;28;20186;-83
2022/10/17 03:00:46;;;;;;;9.50;5.33;;;;;;;11.27;64.19;95977.34;5079021;28;20196;-83
2022/10/17 03:03:24;;;;;;;9.63;5.47;;;;;;;11.33;64.23;95993.19;5077724;28;20201;-84
2022/10/17 03:05:51;;;;;;;7.17;5.43;;;;;;;11.29;64.04;95990.00;5077428;28;20192;-83
2022/10/17 03:08:18;;;;;;;6.23;5.07;;;;;;;11.28;64.08;95999.44;5077319;28;20198;-84
2022/10/17 03:10:44;;;;;;;11.97;5.40;;;;;;;11.26;64.15;95997.91;5077861;28;20256;-84
2022/10/17 03:13:11;;;;;;;5.40;4.90;;;;;;;11.22;64.06;95999.06;5059796;28;20222;-83
2022/10/17 03:15:38;;;;;;;6.37;5.23;;;;;;;11.25;64.14;96003.97;5078169;28;20186;-83
2022/10/17 03:18:05;;;;;;;7.97;5.37;;;;;;;11.23;64.16;95998.16;5066054;28;20191;-81
2022/10/17 03:20:33;;;;;;;7.83;5.20;;;;;;;11.21;64.35;96005.91;5085374;28;20185;-84
2022/10/17 03:23:00;;;;;;;6.57;5.33;;;;;;;11.17;63.98;95996.81;5075940;28;20183;-83
2022/10/17 03:25:27;;;;;;;6.07;5.47;;;;;;;11.20;64.16;96006.03;5078218;28;20200;-81
2022/10/17 03:27:54;;;;;;;8.73;5.63;;;;;;;11.18;64.07;96008.72;5084787;28;20186;-82
2022/10/17 03:30:21;;;;;;;7.30;4.87;;;;;;;11.17;64.01;96007.06;5096965;28;20178;-82
2022/10/17 03:32:48;;;;;;;9.80;5.17;;;;;;;11.08;64.11;95987.25;5094558;28;20261;-82
2022/10/17 03:35:15;;;;;;;5.90;4.90;;;;;;;11.15;64.04;96001.25;5086705;28;20191;-83
2022/10/17 03:37:43;;;;;;;6.63;5.10;;;;;;;11.09;64.13;95999.09;5083398;28;20214;-83
2022/10/17 03:40:11;;;;;;;10.37;5.30;;;;;;;11.13;64.10;96005.63;5096513;28;20194;-82
2022/10/17 03:42:37;;;;;;;8.40;4.97;;;;;;;11.12;64.27;96008.31;5095522;28;20286;-81
2022/10/17 03:45:05;;;;;;;6.60;5.07;;;;;;;11.11;64.24;96010.06;5093574;28;20303;-82
2022/10/17 03:47:32;;;;;;;5.53;4.87;;;;;;;11.10;64.15;96005.88;5083603;28;20250;-83
2022/10/17 03:49:59;;;;;;;6.23;5.07;;;;;;;10.88;64.15;95982.69;5073931;28;20209;-81
2022/10/17 03:52:26;;;;;;;6.83;5.37;;;;;;;10.90;64.17;95984.22;5073148;28;20229;-82
2022/10/17 03:54:54;;;;;;;5.40;4.80;;;;;;;10.94;64.19;96000.19;5072986;28;20202;-83
2022/10/17 03:57:24;;;;;;;8.57;5.67;;;;;;;11.05;64.07;96013.03;5073198;28;20194;-83
2022/10/17 03:59:51;;;;;;;5.57;5.00;;;;;;;10.70;64.29;95960.03;5073256;28;20197;-83
2022/10/17 04:02:18;;;;;;;7.33;5.30;;;;;;;10.76;64.16;95976.72;5077327;28;20194;-82
2022/10/17 04:04:45;;;;;;;8.73;5.60;;;;;;;10.99;64.16;96019.41;5089885;28;20201;-84
2022/10/17 04:07:15;;;;;;;7.97;5.27;;;;;;;10.71;64.23;95971.91;5083364;28;20202;-84
2022/10/17 04:09:42;;;;;;;7.20;5.33;;;;;;;10.98;64.22;96028.03;5074998;28;20185;-83
2022/10/17 04:12:25;;;;;;;6.97;5.40;;;;;;;10.96;64.13;96024.75;5061576;28;20557;-84
2022/10/17 04:14:53;;;;;;;9.67;5.93;;;;;;;10.64;64.35;95973.25;5066457;28;20190;-83
2022/10/17 04:17:20;;;;;;;9.03;5.40;;;;;;;10.91;64.22;96018.31;5071887;28;20194;-84
2022/10/17 04:19:49;;;;;;;6.13;5.37;;;;;;;10.94;64.30;96026.59;5072458;28;20236;-84
2022/10/17 04:22:18;;;;;;;6.87;5.17;;;;;;;10.89;64.29;96025.31;5072506;28;20194;-82
2022/10/17 04:24:45;;;;;;;7.17;5.07;;;;;;;10.92;64.26;96031.00;5072149;28;20241;-85
2022/10/17 04:27:12;;;;;;;7.07;5.33;;;;;;;10.72;64.20;96006.00;5072928;28;20190;-83
2022/10/17 04:29:45;;;;;;;7.33;5.43;;;;;;;10.90;64.23;96035.41;5074684;28;20198;-87
2022/10/17 04:34:52;;;;;;;8.87;5.70;;;;;;;10.71;64.49;96009.50;5071200;28;20194;-82
2022/10/17 04:37:19;;;;;;;6.77;5.40;;;;;;;10.88;64.47;96036.44;5072665;28;20222;-83
2022/10/17 04:39:46;;;;;;;9.30;5.60;;;;;;;10.87;64.41;96034.81;5073573;28;20187;-86
2022/10/17 04:42:13;;;;;;;9.03;6.17;;;;;;;10.76;64.24;96020.22;5074653;28;20240;-84
2022/10/17 04:44:41;;;;;;;9.00;6.03;;;;;;;10.67;64.23;96010.63;5076011;28;20198;-82
2022/10/17 04:47:08;;;;;;;9.93;6.17;;;;;;;10.87;64.30;96045.88;5076640;28;20206;-83
2022/10/17 04:49:35;;;;;;;9.17;6.20;;;;;;;10.86;64.45;96039.13;5071557;28;20186;-84
2022/10/17 04:52:02;;;;;;;10.53;6.60;;;;;;;10.87;64.43;96047.59;5071490;28;20190;-83
2022/10/17 04:54:28;;;;;;;8.30;6.73;;;;;;;10.87;64.21;96045.88;5072638;28;20182;-83
2022/10/17 04:56:55;;;;;;;11.67;7.17;;;;;;;10.91;64.36;96049.03;5072692;28;20212;-81
2022/10/17 04:59:22;;;;;;;13.00;7.03;;;;;;;10.92;64.29;96042.97;5070858;28;20551;-82
2022/10/17 05:01:51;;;;;;;9.97;7.20;;;;;;;10.74;64.28;96019.50;5071562;28;20185;-82
2022/10/17 05:04:17;;;;;;;8.50;6.67;;;;;;;10.91;64.47;96051.59;5071442;28;20190;-82
2022/10/17 05:06:44;;;;;;;9.00;6.30;;;;;;;10.94;63.95;96048.84;5070826;28;20197;-82
2022/10/17 05:09:11;;;;;;;14.07;6.83;;;;;;;10.97;64.19;96051.19;5071081;28;20201;-81
2022/10/17 05:11:38;;;;;;;10.87;7.17;;;;;;;11.05;63.98;96057.41;5071616;28;20202;-83
2022/10/17 05:14:05;;;;;;;11.93;7.00;;;;;;;11.10;64.04;96056.28;5071172;28;20210;-82
2022/10/17 05:16:32;;;;;;;11.37;7.03;;;;;;;11.05;63.79;96048.88;5071140;28;20194;-81
2022/10/17 05:19:00;;;;;;;10.73;6.80;;;;;;;11.16;63.76;96061.75;5071061;28;20201;-83
2022/10/17 05:21:29;;;;;;;16.67;8.73;;;;;;;11.23;63.65;96074.97;5071270;28;20206;-84
2022/10/17 05:23:56;;;;;;;11.80;7.23;;;;;;;11.20;64.06;96057.25;5075718;28;20198;-85
2022/10/17 05:26:23;;;;;;;12.47;8.70;;;;;;;11.35;63.23;96080.94;5079271;28;20197;-90
2022/10/17 05:28:51;;;;;;;13.23;8.20;;;;;;;11.42;63.38;96079.59;5078810;28;20201;-82
2022/10/17 05:31:18;;;;;;;17.83;9.13;;;;;;;11.39;63.20;96064.44;5075127;28;20705;-83
2022/10/17 05:33:44;;;;;;;19.70;9.77;;;;;;;11.54;63.03;96089.00;5084344;28;20666;-84
2022/10/17 05:36:13;;;;;;;14.60;8.90;;;;;;;11.62;63.01;96086.69;5076132;28;20200;-85
2022/10/17 05:38:40;;;;;;;21.23;10.33;;;;;;;11.54;62.74;96063.38;5067566;28;20198;-85
2022/10/17 05:41:07;;;;;;;17.50;9.83;;;;;;;11.66;62.91;96071.94;5072957;28;20202;-91
2022/10/17 05:43:34;;;;;;;18.93;9.60;;;;;;;11.84;62.52;96092.88;5083989;28;20258;-89
2022/10/17 05:46:04;;;;;;;15.70;9.43;;;;;;;11.91;62.49;96092.31;5040517;28;20222;-80
2022/10/17 05:48:30;;;;;;;16.73;10.60;;;;;;;11.92;62.38;96082.88;5050220;28;20187;-80
2022/10/17 05:50:59;;;;;;;11.90;8.67;;;;;;;11.94;62.09;96069.00;5046557;28;20669;-80
2022/10/17 05:53:30;;;;;;;16.77;9.60;;;;;;;12.20;61.84;96092.75;5048760;28;20254;-83
2022/10/17 05:55:58;;;;;;;18.07;9.33;;;;;;;12.30;61.64;96078.31;5049327;28;20186;-81
2022/10/17 05:58:25;;;;;;;15.73;9.30;;;;;;;12.59;61.30;96095.03;5051043;28;20701;-84
2022/10/17 06:00:52;;;;;;;10.70;8.73;;;;;;;12.80;61.17;96099.34;5070706;28;20186;-84
2022/10/17 06:03:19;;;;;;;12.97;8.10;;;;;;;12.97;60.92;96103.22;5056333;28;20193;-83
2022/10/17 06:05:46;;;;;;;12.27;8.80;;;;;;;13.11;60.76;96099.56;5066805;28;20198;-86
2022/10/17 06:08:13;;;;;;;14.23;9.17;;;;;;;13.32;60.36;96101.44;5068475;28;20187;-84
2022/10/17 06:10:41;;;;;;;15.97;9.93;;;;;;;13.19;60.20;96068.16;5056855;28;20541;-85
2022/10/17 06:13:08;;;;;;;14.23;9.40;;;;;;;13.73;60.40;96114.44;5055723;28;20245;-81
2022/10/17 06:15:35;;;;;;;15.03;9.73;;;;;;;14.32;92.96;96110.53;5055311;28;20194;-81
2022/10/17 06:18:01;;;;;;;23.70;10.90;;;;;;;15.03;93.68;96098.59;5055770;28;20194;-82
2022/10/17 06:20:28;;;;;;;19.43;10.60;;;;;;;15.77;89.14;96090.50;5051000;28;20209;-82
2022/10/17 06:22:55;;;;;;;15.17;9.57;;;;;;;16.75;82.98;96120.44;5050170;28;20198;-83
2022/10/17 06:25:22;;;;;;;15.90;9.90;;;;;;;17.48;78.23;96119.72;5050357;28;20187;-84
2022/10/17 06:27:50;;;;;;;26.77;8.83;;;;;;;18.07;73.55;96109.81;5050418;28;20287;-88
2022/10/17 06:30:17;;;;;;;14.70;9.47;;;;;;;18.76;70.13;96109.84;5048533;28;20218;-86
2022/10/17 06:32:44;;;;;;;16.77;8.20;;;;;;;19.60;66.85;96133.38;5051667;28;20222;-84
2022/10/17 06:35:11;;;;;;;12.60;8.40;;;;;;;20.41;63.93;96146.50;5050128;28;20194;-88
2022/10/17 06:37:38;;;;;;;16.33;8.00;;;;;;;21.04;61.28;96137.19;5050614;28;20194;-87
2022/10/17 06:40:07;;;;;;;14.80;8.13;;;;;;;21.81;59.09;96144.38;5051608;28;20226;-81
2022/10/17 06:42:34;;;;;;;11.07;7.93;;;;;;;22.41;56.86;96141.03;5064202;28;20604;-81
2022/10/17 06:45:03;;;;;;;11.57;7.80;;;;;;;23.07;55.21;96152.53;5041272;28;20716;-80
2022/10/17 06:47:30;;;;;;;13.82;7.60;;;;;;;23.65;53.34;96161.34;5054275;28;20573;-83
2022/10/17 06:49:57;;;;;;;15.98;7.57;;;;;;;24.23;51.43;96156.13;5051078;28;20187;-83
2022/10/17 06:52:23;;;;;;;8.93;6.82;;;;;;;24.76;49.85;96159.22;5049169;28;20243;-83
2022/10/17 06:54:51;;;;;;;9.45;7.13;;;;;;;25.28;48.80;96157.97;5049498;28;20238;-84
2022/10/17 06:57:18;;;;;;;13.40;7.18;;;;;;;25.77;47.37;96155.19;5049378;28;20826;-84
2022/10/17 06:59:45;;;;;;;16.67;7.03;;;;;;;26.23;45.92;96153.69;5049118;28;20195;-84
2022/10/17 07:02:24;;;;;;;;;;;;;;;;;;;;;
2022/10/17 07:04:55;;;;;;;11.88;7.00;;;;;;;26.69;43.70;96085.50;5048134;28;20236;-85
2022/10/17 07:07:22;;;;;;;11.82;6.88;;;;;;;27.55;43.22;96154.59;5049586;28;20205;-84
2022/10/17 07:09:49;;;;;;;9.02;6.15;;;;;;;27.90;42.34;96152.47;5049608;28;20218;-84
2022/10/17 07:12:17;;;;;;;10.93;6.75;;;;;;;28.25;41.35;96161.56;5049795;28;20317;-83
2022/10/17 07:14:46;;;;;;;10.95;7.07;;;;;;;28.56;40.70;96157.31;5048853;28;20214;-82
2022/10/17 07:17:14;;;;;;;9.18;6.72;;;;;;;28.82;40.35;96153.66;5048704;28;20646;-82
2022/10/17 07:19:42;;;;;;;9.93;6.80;;;;;;;29.12;39.44;96159.09;5048270;28;20191;-83
2022/10/17 07:22:09;;;;;;;9.25;6.43;;;;;;;29.35;38.87;96144.44;5048933;28;20213;-83
2022/10/17 07:24:36;;;;;;;10.77;7.07;;;;;;;29.60;38.17;96158.38;5048587;28;20736;-83
2022/10/17 07:27:03;;;;;;;10.32;6.85;;;;;;;29.55;37.76;96123.94;5048275;28;20191;-83
2022/10/17 07:29:30;;;;;;;9.70;6.47;;;;;;;29.68;37.46;96115.09;5049661;28;20206;-83
2022/10/17 07:31:56;;;;;;;16.88;6.97;;;;;;;30.02;36.97;96136.56;5052492;28;20677;-83
2022/10/17 07:34:26;;;;;;;10.63;7.07;;;;;;;30.22;36.78;96148.47;5054155;28;20238;-82
2022/10/17 07:36:53;;;;;;;9.15;6.60;;;;;;;30.45;36.37;96171.47;5054214;28;20390;-83
2022/10/17 07:39:20;;;;;;;11.15;6.57;;;;;;;30.42;35.68;96150.00;5052947;28;20195;-82
2022/10/17 07:41:49;;;;;;;7.05;6.35;;;;;;;30.41;35.46;96138.63;5055233;28;20642;-82
2022/10/17 07:44:16;;;;;;;8.20;6.10;;;;;;;30.72;35.22;96169.25;5056444;28;20183;-85
2022/10/17 07:46:43;;;;;;;11.95;6.25;;;;;;;30.76;35.10;96160.88;5052999;28;20796;-84
2022/10/17 07:49:10;;;;;;;10.45;6.60;;;;;;;30.84;35.08;96171.91;5052440;28;20207;-82
2022/10/17 07:51:38;;;;;;;8.07;5.95;;;;;;;30.76;34.62;96156.38;5052134;28;20213;-82
2022/10/17 07:54:06;;;;;;;8.25;5.88;;;;;;;30.87;34.58;96178.56;5051481;28;20215;-82
2022/10/17 07:56:32;;;;;;;8.77;5.75;;;;;;;30.86;34.70;96172.47;5052553;28;20187;-81
2022/10/17 07:58:59;;;;;;;7.03;5.90;;;;;;;30.82;34.18;96170.50;5056098;28;20202;-81
2022/10/17 08:01:27;;;;;;;7.28;5.90;;;;;;;30.69;34.32;96159.09;5052479;28;20206;-81
2022/10/17 08:03:54;;;;;;;7.80;5.70;;;;;;;30.73;34.45;96170.84;5051937;28;20221;-81
2022/10/17 08:06:21;;;;;;;8.23;6.30;;;;;;;30.63;34.80;96167.16;5052369;28;20257;-84
2022/10/17 08:08:49;;;;;;;10.20;6.90;;;;;;;30.12;35.16;96118.34;5057832;28;20770;-83
2022/10/17 08:11:16;;;;;;;10.73;6.97;;;;;;;30.13;34.97;96159.53;5069009;28;20191;-80
2022/10/17 08:13:43;;;;;;;9.82;7.07;;;;;;;29.84;35.27;96163.78;5055289;28;20704;-84
2022/10/17 08:16:12;;;;;;;11.73;7.22;;;;;;;29.37;35.17;96124.75;5035366;28;20663;-82
2022/10/17 08:18:40;;;;;;;9.95;7.03;;;;;;;29.40;35.47;96160.41;5052467;28;20187;-84
2022/10/17 08:21:07;;;;;;;11.88;6.32;;;;;;;29.24;35.62;96162.63;5052294;28;20195;-83
2022/10/17 08:23:35;;;;;;;10.32;6.72;;;;;;;29.09;35.38;96159.50;5052412;28;20206;-83
2022/10/17 08:26:07;;;;;;;13.45;7.85;;;;;;;28.88;35.21;96160.69;5047710;28;20195;-83
2022/10/17 08:28:35;;;;;;;11.65;7.35;;;;;;;28.63;35.77;96159.91;5052207;28;20781;-81
2022/10/17 08:31:03;;;;;;;11.23;8.00;;;;;;;28.30;35.65;96149.59;5052102;28;20642;-82
2022/10/17 08:33:30;;;;;;;14.40;7.95;;;;;;;27.79;35.41;96113.69;5053682;28;20242;-82
2022/10/17 08:35:58;;;;;;;9.70;8.00;;;;;;;27.58;35.73;96131.34;5054461;28;20224;-81
2022/10/17 08:38:25;;;;;;;11.50;8.60;;;;;;;27.35;35.74;96134.47;5062257;28;20195;-83
2022/10/17 08:41:00;;;;;;;15.68;7.70;;;;;;;27.09;36.04;96148.47;5053384;28;20217;-82
2022/10/17 08:43:56;;;;;;;12.55;7.93;;;;;;;26.76;36.06;96145.84;5072240;28;20240;-83
2022/10/17 08:46:29;;;;;;;12.27;8.13;;;;;;;26.54;36.18;96145.25;4989222;28;20196;-83
2022/10/17 08:49:01;;;;;;;10.57;7.68;;;;;;;26.31;36.44;96148.25;4985726;28;20377;-82
2022/10/17 08:51:33;;;;;;;10.98;8.18;;;;;;;26.09;36.50;96144.19;4971973;28;20208;-84
2022/10/17 08:54:08;;;;;;;10.77;7.53;;;;;;;25.72;36.43;96130.53;4982692;28;20723;-85
2022/10/17 08:56:40;;;;;;;13.18;7.63;;;;;;;25.64;36.40;96147.25;4977083;28;20205;-82
2022/10/17 08:59:12;;;;;;;14.32;8.50;;;;;;;25.39;36.77;96141.72;4979580;28;20225;-83
2022/10/17 09:01:46;;;;;;;15.77;8.18;;;;;;;25.01;37.15;96108.06;4983846;28;20192;-82
2022/10/17 09:04:34;;;;;;;12.43;7.45;;;;;;;25.06;36.83;96151.19;4978195;28;20205;-83
2022/10/17 09:07:07;;;;;;;12.80;7.63;;;;;;;24.87;36.99;96155.25;4986219;28;20224;-82
2022/10/17 09:09:41;;;;;;;11.20;7.65;;;;;;;24.70;37.64;96150.34;4980847;28;20669;-84
2022/10/17 09:12:18;;;;;;;11.52;7.28;;;;;;;24.54;37.51;96150.59;4983152;28;20205;-83
2022/10/17 09:15:09;;;;;;;11.40;7.60;;;;;;;24.39;37.47;96144.63;4977823;28;20675;-83
2022/10/17 09:17:48;;;;;;;10.82;7.85;;;;;;;24.23;37.46;96148.28;4977466;28;20197;-82
2022/10/17 09:20:20;;;;;;;12.93;7.60;;;;;;;24.10;37.91;96148.16;4986695;28;20193;-82
2022/10/17 09:22:53;;;;;;;14.50;7.88;;;;;;;23.98;37.85;96142.63;5008077;28;20289;-81
2022/10/17 09:25:21;;;;;;;11.70;8.40;;;;;;;23.83;38.06;96132.19;5071668;28;20206;-81
2022/10/17 09:27:51;;;;;;;12.27;7.85;;;;;;;23.78;37.74;96147.63;5072255;28;20194;-81
2022/10/17 09:30:32;;;;;;;15.35;7.35;;;;;;;23.68;38.15;96140.06;5073732;28;20186;-83
2022/10/17 09:32:59;;;;;;;10.75;7.20;;;;;;;23.51;37.94;96131.63;5079254;28;20187;-80
2022/10/17 09:35:29;;;;;;;10.25;7.00;;;;;;;23.46;38.09;96133.97;5078243;28;20225;-80
2022/10/17 09:37:56;;;;;;;11.80;7.90;;;;;;;23.42;38.26;96134.50;5077883;28;20661;-82
2022/10/17 09:40:26;;;;;;;9.82;6.68;;;;;;;23.31;38.01;96125.31;5072179;28;20201;-82
2022/10/17 09:42:53;;;;;;;8.55;6.63;;;;;;;23.28;38.12;96130.94;5073572;28;20325;-81
2022/10/17 09:45:25;;;;;;;10.80;7.30;;;;;;;23.22;38.22;96129.03;5070483;28;20645;-83
2022/10/17 09:48:02;;;;;;;8.93;6.22;;;;;;;23.14;38.03;96132.53;5070500;28;20198;-84
2022/10/17 09:50:31;;;;;;;8.45;6.80;;;;;;;23.01;37.81;96130.59;5071155;28;20225;-84
2022/10/17 09:53:02;;;;;;;7.30;5.55;;;;;;;23.01;37.67;96124.53;5071148;28;20220;-84
2022/10/17 09:55:38;;;;;;;8.60;5.70;;;;;;;22.90;37.79;96114.56;5070917;28;20226;-82
2022/10/17 09:58:07;;;;;;;14.40;6.28;;;;;;;22.90;37.63;96123.19;5069195;28;20190;-82
2022/10/17 10:00:36;;;;;;;10.35;5.53;;;;;;;22.76;37.50;96103.91;5069711;28;20197;-81
2022/10/17 10:03:16;;;;;;;8.95;5.72;;;;;;;22.71;37.80;96101.03;5070503;28;20189;-82
2022/10/17 10:05:58;;;;;;;8.90;5.30;;;;;;;22.56;37.75;96084.53;5067109;28;20202;-82
2022/10/17 10:08:28;;;;;;;6.78;5.18;;;;;;;22.39;37.67;96062.22;5070758;28;20194;-82
2022/10/17 10:10:59;;;;;;;7.68;4.95;;;;;;;22.66;37.57;96108.53;5070917;28;20198;-82
2022/10/17 10:13:27;;;;;;;6.82;5.32;;;;;;;22.57;37.37;96091.38;5082495;28;20225;-82
2022/10/17 10:15:54;;;;;;;7.63;5.10;;;;;;;22.62;37.41;96104.69;5074239;28;20618;-81
2022/10/17 10:18:31;;;;;;;7.03;4.72;;;;;;;22.46;37.14;96084.78;5069428;28;20194;-80
2022/10/17 10:21:10;;;;;;;5.82;4.55;;;;;;;22.58;37.29;96100.00;5070218;28;20647;-82
2022/10/17 10:23:39;;;;;;;6.75;3.80;;;;;;;22.52;37.11;96093.69;5068333;28;20268;-82
2022/10/17 10:26:20;;;;;;;5.72;4.15;;;;;;;22.52;37.00;96106.75;5070849;28;20661;-82
2022/10/17 10:28:54;;;;;;;4.78;3.90;;;;;;;22.41;36.97;96081.91;5069274;28;20289;-81
2022/10/17 10:31:28;;;;;;;4.72;3.90;;;;;;;22.50;36.92;96099.09;5067902;28;20197;-83
2022/10/17 10:33:56;;;;;;;6.60;4.43;;;;;;;22.47;36.97;96096.84;5071362;28;20225;-81
2022/10/17 10:36:23;;;;;;;6.07;4.10;;;;;;;22.46;36.71;96094.41;5071694;28;20669;-81
2022/10/17 10:38:56;;;;;;;7.20;3.88;;;;;;;22.44;36.64;96086.75;5070676;28;20190;-81
2022/10/17 10:41:26;;;;;;;5.82;3.45;;;;;;;22.38;36.70;96076.25;5070030;28;20213;-80
2022/10/17 10:43:55;;;;;;;6.13;3.90;;;;;;;22.20;36.53;96048.69;5056129;28;20217;-82
2022/10/17 10:46:26;;;;;;;6.60;3.65;;;;;;;22.41;36.74;96083.69;5047594;28;20195;-81
2022/10/17 10:48:58;;;;;;;4.07;3.20;;;;;;;22.40;36.67;96080.28;5049654;28;20198;-80
2022/10/17 10:51:31;;;;;;;5.13;3.60;;;;;;;22.38;36.50;96077.06;5049996;28;20411;-82
2022/10/17 10:54:05;;;;;;;3.70;3.28;;;;;;;22.28;36.48;96058.25;5049563;28;20226;-83
2022/10/17 10:56:37;;;;;;;3.80;3.17;;;;;;;22.36;36.39;96065.97;5050126;28;20187;-81
2022/10/17 10:59:13;;;;;;;6.25;3.05;;;;;;;22.36;36.42;96065.16;5049067;28;20244;-81
2022/10/17 11:01:46;;;;;;;3.00;2.75;;;;;;;22.23;36.47;96045.72;5052623;28;20187;-82
2022/10/17 11:04:23;;;;;;;6.43;3.42;;;;;;;22.35;36.37;96068.75;5053716;28;20199;-81
2022/10/17 11:06:55;;;;;;;5.70;2.75;;;;;;;22.33;36.30;96060.31;5060209;28;20271;-83
2022/10/17 11:09:34;;;;;;;3.10;2.70;;;;;;;22.15;36.14;96035.41;5064132;28;20197;-82
2022/10/17 11:12:07;;;;;;;3.92;3.30;;;;;;;22.27;36.46;96057.41;5070400;28;20201;-82
2022/10/17 11:14:45;;;;;;;5.47;3.15;;;;;;;22.30;36.37;96061.47;5075404;28;20215;-83
2022/10/17 11:17:23;;;;;;;3.55;3.08;;;;;;;22.29;36.10;96052.03;5071698;28;20669;-83
2022/10/17 11:19:59;;;;;;;5.93;3.08;;;;;;;22.12;36.07;96027.94;5074214;28;20246;-83
2022/10/17 11:22:31;;;;;;;3.25;2.85;;;;;;;22.27;36.15;96049.59;5066304;28;20290;-84
2022/10/17 11:25:03;;;;;;;4.35;2.85;;;;;;;22.10;36.10;96021.22;5052511;28;20187;-83
2022/10/17 11:27:31;;;;;;;4.85;2.95;;;;;;;21.95;36.14;95993.34;5053191;28;20191;-84
2022/10/17 11:29:59;;;;;;;4.88;3.13;;;;;;;22.09;36.17;96015.22;5053862;28;20295;-83
2022/10/17 11:32:31;;;;;;;5.47;3.53;;;;;;;22.20;36.07;96035.66;5056381;28;20214;-83
2022/10/17 11:35:06;;;;;;;2.95;2.67;;;;;;;22.23;36.13;96043.13;5060058;28;20211;-83
2022/10/17 11:37:38;;;;;;;3.03;2.72;;;;;;;22.10;35.94;96016.81;5057867;28;20285;-85
2022/10/17 11:40:15;;;;;;;4.05;2.92;;;;;;;21.97;35.87;96000.97;5058238;28;20666;-84
2022/10/17 11:42:55;;;;;;;3.40;2.58;;;;;;;22.11;35.57;96022.88;5055700;28;20230;-84
2022/10/17 11:45:26;;;;;;;2.92;2.60;;;;;;;21.77;35.83;95970.22;5048506;28;20279;-84
2022/10/17 11:47:58;;;;;;;3.35;2.80;;;;;;;21.85;35.79;95991.97;5052949;28;20199;-85
2022/10/17 11:50:30;;;;;;;4.72;2.65;;;;;;;22.09;35.57;96012.59;5050004;28;20253;-83